Carnarvon Airport


Codes: YCAR/CVQ
Name: Carnarvon Airport
City:
Country: Australia
Elevation: 13 ft.
Wikipedia:

Photos at Carnarvon Airport


   Photos courtesy of SpottingLog. You can add your own sightings and photos by signing up for a free trial today.



No photos found.

Weather at Carnarvon Airport


Time (UTC)DescriptionTempratureWindCloud coverageVisibilityPressureHumidity
17-Jun-2024 06:00Light Rain19°C18 mph, SE99%10000m1015hPa82%
17-Jun-2024 09:00Light Rain19°C9 mph, SE99%10000m1016hPa81%
17-Jun-2024 12:00Overcast Clouds19°C9 mph, SE100%10000m1018hPa80%
17-Jun-2024 15:00Overcast Clouds20°C11 mph, S93%10000m1019hPa77%
17-Jun-2024 18:00Overcast Clouds20°C16 mph, S95%10000m1019hPa77%
17-Jun-2024 21:00Few Clouds19°C18 mph, SE22%10000m1019hPa76%
18-Jun-2024 00:00Few Clouds18°C20 mph, SE12%10000m1020hPa71%
18-Jun-2024 03:00Clear Sky21°C20 mph, SE0%10000m1020hPa54%
18-Jun-2024 06:00Clear Sky23°C20 mph, S0%10000m1018hPa48%
18-Jun-2024 09:00Clear Sky22°C22 mph, S0%10000m1019hPa51%
18-Jun-2024 12:00Clear Sky21°C22 mph, SE0%10000m1020hPa52%
18-Jun-2024 15:00Clear Sky20°C22 mph, SE0%10000m1021hPa50%
18-Jun-2024 18:00Clear Sky18°C22 mph, SE0%10000m1021hPa53%
18-Jun-2024 21:00Clear Sky17°C22 mph, SE0%10000m1021hPa55%
19-Jun-2024 00:00Clear Sky16°C20 mph, SE0%10000m1023hPa58%
19-Jun-2024 03:00Clear Sky21°C22 mph, SE0%10000m1022hPa44%
19-Jun-2024 06:00Clear Sky23°C20 mph, SE0%10000m1019hPa41%
19-Jun-2024 09:00Clear Sky23°C18 mph, SE0%10000m1019hPa42%
19-Jun-2024 12:00Clear Sky20°C16 mph, SE0%10000m1021hPa42%
19-Jun-2024 15:00Clear Sky19°C18 mph, SE0%10000m1021hPa47%
19-Jun-2024 18:00Clear Sky17°C18 mph, SE0%10000m1021hPa47%
19-Jun-2024 21:00Clear Sky16°C16 mph, SE0%10000m1020hPa55%
20-Jun-2024 00:00Clear Sky16°C16 mph, SE0%10000m1022hPa60%
20-Jun-2024 03:00Clear Sky21°C18 mph, E0%10000m1021hPa46%
20-Jun-2024 06:00Clear Sky24°C11 mph, E0%10000m1019hPa42%
20-Jun-2024 09:00Clear Sky24°C9 mph, E0%10000m1019hPa45%
20-Jun-2024 12:00Clear Sky21°C9 mph, E0%10000m1020hPa50%
20-Jun-2024 15:00Clear Sky20°C11 mph, E0%10000m1020hPa51%
20-Jun-2024 18:00Clear Sky19°C11 mph, E0%10000m1018hPa55%
20-Jun-2024 21:00Clear Sky18°C11 mph, NE0%10000m1018hPa57%
21-Jun-2024 00:00Clear Sky18°C9 mph, NE0%10000m1019hPa58%
21-Jun-2024 03:00Clear Sky23°C9 mph, N0%10000m1020hPa45%
21-Jun-2024 06:00Clear Sky25°C7 mph, W3%10000m1018hPa45%
21-Jun-2024 09:00Clear Sky23°C9 mph, W10%10000m1018hPa54%
21-Jun-2024 12:00Clear Sky22°C4 mph, NW9%10000m1019hPa63%
21-Jun-2024 15:00Broken Clouds21°C4 mph, NW80%10000m1019hPa67%
21-Jun-2024 18:00Broken Clouds21°C4 mph, W63%10000m1018hPa72%
21-Jun-2024 21:00Scattered Clouds21°C4 mph, N35%10000m1018hPa74%
22-Jun-2024 00:00Light Rain21°C7 mph, N58%10000m1019hPa70%
22-Jun-2024 03:00Broken Clouds23°C7 mph, N82%10000m1020hPa62%